createdAt,value
2019-02-18T00:01:00.465Z,11.57
2019-02-18T00:06:12.201Z,12.87
2019-02-18T00:11:23.086Z,9.90
2019-02-18T00:16:30.711Z,11.23
2019-02-18T00:21:41.539Z,11.03
2019-02-18T00:26:59.331Z,11.90
2019-02-18T00:32:07.361Z,11.70
2019-02-18T00:37:24.138Z,10.60
2019-02-18T00:42:27.365Z,12.40
2019-02-18T00:47:35.368Z,12.77
2019-02-18T00:52:52.425Z,10.27
2019-02-18T00:58:05.123Z,10.80
2019-02-18T01:03:13.685Z,10.50
2019-02-18T01:08:27.517Z,9.68
2019-02-18T01:13:42.082Z,10.28
2019-02-18T01:18:59.950Z,11.67
2019-02-18T01:24:11.790Z,9.93
2019-02-18T01:29:22.883Z,9.83
2019-02-18T01:34:35.780Z,12.10
2019-02-18T01:39:46.697Z,10.53
2019-02-18T01:44:57.542Z,11.97
2019-02-18T01:50:08.613Z,10.03
2019-02-18T01:55:20.303Z,12.97
2019-02-18T02:00:30.345Z,9.48
2019-02-18T02:05:41.109Z,9.60
2019-02-18T02:10:52.019Z,10.07
2019-02-18T02:16:03.313Z,9.30
2019-02-18T02:21:11.946Z,10.17
2019-02-18T02:26:27.601Z,8.73
2019-02-18T02:31:37.645Z,9.07
2019-02-18T02:36:52.302Z,8.10
2019-02-18T02:42:03.351Z,10.07
2019-02-18T02:47:14.651Z,8.37
2019-02-18T02:52:29.587Z,9.23
2019-02-18T02:57:45.290Z,9.67
2019-02-18T03:02:57.131Z,9.63
2019-02-18T03:08:19.971Z,8.67
2019-02-18T03:13:17.956Z,8.63
2019-02-18T03:18:28.773Z,10.80
2019-02-18T03:23:39.683Z,9.13
2019-02-18T03:29:19.820Z,9.43
2019-02-18T03:34:37.912Z,9.55
2019-02-18T03:39:49.961Z,8.63
2019-02-18T03:45:07.216Z,11.17
2019-02-18T03:50:20.742Z,11.20
2019-02-18T03:55:28.461Z,10.20
2019-02-18T04:00:42.074Z,10.00
2019-02-18T04:05:55.141Z,11.70
2019-02-18T04:11:07.832Z,11.10
2019-02-18T04:16:20.477Z,11.25
2019-02-18T04:21:30.162Z,11.83
2019-02-18T04:26:44.391Z,12.57
2019-02-18T04:31:52.678Z,12.60
2019-02-18T04:37:02.125Z,13.83
2019-02-18T04:42:16.950Z,10.57
2019-02-18T04:47:33.923Z,10.45
2019-02-18T04:52:50.161Z,14.30
2019-02-18T04:58:02.419Z,16.07
2019-02-18T05:03:13.142Z,13.90
2019-02-18T05:08:20.059Z,12.43
2019-02-18T05:13:31.414Z,13.90
2019-02-18T05:18:39.848Z,14.30
2019-02-18T05:23:50.243Z,10.40
2019-02-18T05:29:03.921Z,12.77
2019-02-18T05:34:16.552Z,15.73
2019-02-18T05:39:25.613Z,13.25
2019-02-18T05:44:37.389Z,11.97
2019-02-18T05:49:47.537Z,14.03
2019-02-18T05:54:57.894Z,15.23
2019-02-18T06:00:07.548Z,14.90
2019-02-18T06:05:20.139Z,13.18
2019-02-18T06:10:30.601Z,11.87
2019-02-18T06:15:45.803Z,11.93
2019-02-18T06:21:01.125Z,14.03
2019-02-18T06:26:10.131Z,13.40
2019-02-18T06:31:21.777Z,14.00
2019-02-18T06:36:29.929Z,13.67
2019-02-18T06:41:41.133Z,14.93
2019-02-18T06:46:58.827Z,15.57
2019-02-18T06:52:06.905Z,16.43
2019-02-18T06:57:46.348Z,23.27
2019-02-18T07:03:19.642Z,13.60
2019-02-18T07:08:44.747Z,11.90
2019-02-18T07:13:55.072Z,18.07
2019-02-18T07:19:09.486Z,13.37
2019-02-18T07:24:21.268Z,14.90
2019-02-18T07:29:31.303Z,13.33
2019-02-18T07:34:44.871Z,17.87
2019-02-18T07:40:01.508Z,16.37
2019-02-18T07:45:05.229Z,14.83
2019-02-18T07:50:20.576Z,13.63
2019-02-18T07:55:26.183Z,15.57
2019-02-18T08:00:40.112Z,13.67
2019-02-18T08:05:53.445Z,13.47
2019-02-18T08:11:10.791Z,14.70
2019-02-18T08:16:22.629Z,14.13
2019-02-18T08:21:31.711Z,16.70
2019-02-18T08:26:45.386Z,15.80
2019-02-18T08:31:57.451Z,11.85
2019-02-18T08:37:10.214Z,12.43
2019-02-18T08:42:17.955Z,13.75
2019-02-18T08:47:31.567Z,14.47
2019-02-18T08:52:44.581Z,11.30
2019-02-18T08:57:53.911Z,15.20
2019-02-18T09:03:06.688Z,14.07
2019-02-18T09:08:17.485Z,13.93
2019-02-18T09:13:29.938Z,12.13
2019-02-18T09:18:38.021Z,12.47
2019-02-18T09:23:50.508Z,13.77
2019-02-18T09:28:59.012Z,17.13
2019-02-18T09:34:08.974Z,15.93
2019-02-18T09:39:30.521Z,9.87
2019-02-18T09:44:36.804Z,15.70
2019-02-18T09:49:46.075Z,11.93
2019-02-18T09:54:54.150Z,16.13
2019-02-18T10:00:05.733Z,13.97
2019-02-18T10:05:13.326Z,18.70
2019-02-18T10:10:22.308Z,10.87
2019-02-18T10:15:37.754Z,9.60
2019-02-18T10:20:48.458Z,10.97
2019-02-18T10:25:59.206Z,12.07
2019-02-18T10:31:10.046Z,10.55
2019-02-18T10:36:18.073Z,11.33
2019-02-18T10:41:26.406Z,11.60
2019-02-18T10:46:40.594Z,12.82
2019-02-18T10:51:45.500Z,10.85
2019-02-18T10:56:53.438Z,11.25
2019-02-18T11:02:02.589Z,11.43
2019-02-18T11:07:20.581Z,12.37
2019-02-18T11:12:29.562Z,11.60
2019-02-18T11:17:40.423Z,11.05
2019-02-18T11:22:50.625Z,11.00
2019-02-18T11:28:04.357Z,15.08
2019-02-18T11:33:15.942Z,12.00
2019-02-18T11:38:26.148Z,11.45
2019-02-18T11:43:34.655Z,14.95
2019-02-18T11:48:47.213Z,13.62
2019-02-18T11:53:59.947Z,12.75
2019-02-18T11:59:12.484Z,11.30
2019-02-18T12:04:25.957Z,11.50
2019-02-18T12:09:39.463Z,11.50
2019-02-18T12:14:48.779Z,11.65
2019-02-18T12:19:59.485Z,10.50
2019-02-18T12:25:07.560Z,10.28
2019-02-18T12:30:38.694Z,14.75
2019-02-18T12:35:51.306Z,12.70
2019-02-18T12:41:04.373Z,11.30
2019-02-18T12:46:15.857Z,13.47
2019-02-18T12:51:26.256Z,13.93
2019-02-18T12:56:38.920Z,10.35
2019-02-18T13:01:53.458Z,11.20
2019-02-18T13:07:05.069Z,11.38
2019-02-18T13:12:14.032Z,11.25
2019-02-18T13:17:29.467Z,10.90
2019-02-18T13:22:43.543Z,11.48
2019-02-18T13:27:57.056Z,11.60
2019-02-18T13:33:10.119Z,14.15
2019-02-18T13:38:22.801Z,11.67
2019-02-18T13:43:38.123Z,12.15
2019-02-18T13:48:51.532Z,12.33
2019-02-18T13:54:20.527Z,11.70
2019-02-18T13:59:31.334Z,12.70
2019-02-18T14:04:44.372Z,13.55
2019-02-18T14:09:53.760Z,12.90
2019-02-18T14:15:04.851Z,12.53
2019-02-18T14:20:18.479Z,12.60
2019-02-18T14:25:27.101Z,11.95
2019-02-18T14:30:39.983Z,12.40
2019-02-18T14:35:47.841Z,12.90
2019-02-18T14:40:58.823Z,13.40
2019-02-18T14:46:07.439Z,12.28
2019-02-18T14:51:56.136Z,13.83
2019-02-18T14:57:06.662Z,16.25
2019-02-18T15:02:18.302Z,15.90
2019-02-18T15:07:28.532Z,16.12
2019-02-18T15:12:38.020Z,13.58
2019-02-18T15:17:47.948Z,14.20
2019-02-18T15:22:59.591Z,16.40
2019-02-18T15:28:11.466Z,14.63
2019-02-18T15:33:21.436Z,14.80
2019-02-18T15:38:33.186Z,15.05
2019-02-18T15:43:41.675Z,13.70
2019-02-18T15:48:52.492Z,13.78
2019-02-18T15:54:02.893Z,13.98
2019-02-18T15:59:15.469Z,13.85
2019-02-18T16:04:29.137Z,14.63
2019-02-18T16:09:40.480Z,15.57
2019-02-18T16:14:53.038Z,17.93
2019-02-18T16:20:02.669Z,16.27
2019-02-18T16:25:14.161Z,16.17
2019-02-18T16:30:25.031Z,15.50
2019-02-18T16:35:35.764Z,18.00
2019-02-18T16:40:47.071Z,16.40
2019-02-18T16:45:55.782Z,15.93
2019-02-18T16:51:04.138Z,16.43
2019-02-18T16:56:17.779Z,17.83
2019-02-18T17:01:32.170Z,19.60
2019-02-18T17:06:43.206Z,17.87
2019-02-18T17:11:51.109Z,18.80
2019-02-18T17:17:00.472Z,19.17
2019-02-18T17:22:11.277Z,17.93
2019-02-18T17:27:22.087Z,17.67
2019-02-18T17:32:35.590Z,20.53
2019-02-18T17:37:46.261Z,19.13
2019-02-18T17:42:54.711Z,21.17
2019-02-18T17:48:01.465Z,18.23
2019-02-18T17:53:09.511Z,18.13
2019-02-18T17:58:21.253Z,17.77
2019-02-18T18:03:33.002Z,19.90
2019-02-18T18:08:42.890Z,16.87
2019-02-18T18:13:52.752Z,17.20
2019-02-18T18:19:09.069Z,19.83
2019-02-18T18:24:11.663Z,21.43
2019-02-18T18:29:22.888Z,19.93
2019-02-18T18:34:36.394Z,21.77
2019-02-18T18:39:49.131Z,16.97
2019-02-18T18:44:59.263Z,18.10
2019-02-18T18:50:09.204Z,18.07
2019-02-18T18:55:22.693Z,22.77
2019-02-18T19:00:29.728Z,25.33
2019-02-18T19:05:44.108Z,21.23
2019-02-18T19:10:51.912Z,20.37
2019-02-18T19:16:00.150Z,18.93
2019-02-18T19:21:13.719Z,21.60
2019-02-18T19:26:23.305Z,24.17
2019-02-18T19:31:33.292Z,23.90
2019-02-18T19:36:47.122Z,21.37
2019-02-18T19:41:56.311Z,23.47
2019-02-18T19:47:07.111Z,18.90
2019-02-18T19:52:17.088Z,18.03
2019-02-18T19:57:25.419Z,19.42
2019-02-18T20:02:40.103Z,18.67
2019-02-18T20:07:51.145Z,19.67
2019-02-18T20:13:01.482Z,21.83
2019-02-18T20:18:13.880Z,23.40
2019-02-18T20:23:29.477Z,22.93
2019-02-18T20:28:38.230Z,20.13
2019-02-18T20:34:46.983Z,22.77
2019-02-18T20:39:59.328Z,19.47
2019-02-18T20:45:08.231Z,24.17
2019-02-18T20:50:19.110Z,24.50
2019-02-18T20:55:31.746Z,24.70
2019-02-18T21:00:44.583Z,23.80
2019-02-18T21:05:55.300Z,25.97
2019-02-18T21:11:05.083Z,27.23
2019-02-18T21:16:20.496Z,31.60
2019-02-18T21:21:31.060Z,26.60
2019-02-18T21:26:41.122Z,26.87
2019-02-18T21:31:54.807Z,23.57
2019-02-18T21:37:03.987Z,24.67
2019-02-18T21:42:11.565Z,25.23
2019-02-18T21:47:25.091Z,24.07
2019-02-18T21:52:34.205Z,22.87
2019-02-18T21:57:46.823Z,23.97
2019-02-18T22:02:57.779Z,22.53
2019-02-18T22:08:06.975Z,24.33
2019-02-18T22:13:21.317Z,25.45
2019-02-18T22:18:33.989Z,23.67
2019-02-18T22:24:07.693Z,21.83
2019-02-18T22:29:23.087Z,21.63
2019-02-18T22:34:37.502Z,24.93
2019-02-18T22:39:48.725Z,23.47
2019-02-18T22:44:59.561Z,24.90
2019-02-18T22:50:11.431Z,24.73
2019-02-18T22:55:21.257Z,22.63
2019-02-18T23:00:56.746Z,23.97
2019-02-18T23:06:11.144Z,25.13
2019-02-18T23:11:17.975Z,23.75
2019-02-18T23:16:28.658Z,27.75
2019-02-18T23:21:37.698Z,28.13
2019-02-18T23:26:46.588Z,24.27
2019-02-18T23:31:54.918Z,33.90
2019-02-18T23:37:08.436Z,24.87
2019-02-18T23:42:21.922Z,26.05
2019-02-18T23:47:34.700Z,31.40
2019-02-18T23:52:43.615Z,27.60
2019-02-18T23:57:53.916Z,27.13
